Soaring Guidance
Issued by NWS Reno, NV

Current Version | Previous Version | Text Only | Print | Product List | Glossary On
Versions: 1 2 3 4 5 6 7 8 9 10 11 12 13 14 15
000
UXUS97 KREV 251348
SRGREV

SOARING FORECAST
NATIONAL WEATHER SERVICE - RENO NV
700 AM PDT SAT APR 25 2015

THIS SOARING FORECAST IS FOR THE EASTERN SIERRA AND WESTERN NEVADA
WITH SPECIFIC INDICES FOR THE GREATER RENO AREA.

THIS FORECAST IS NOT UPDATED.

FOR CURRENT FLIGHT CONDITIONS...FORECASTS...AND ADVISORIES...ACCESS
YOUR LOCAL BRIEFING OUTLET OR FLIGHT SERVICE STATION.

*******************************************************************
LOCAL INDICES FOR RENO:                   TODAY     YESTERDAY
MAXIMUM TEMPERATURE AT RENO...(DEG F)...     52
TRIGGER TEMPERATURE...........(DEG F)...     46          52
   EXCEEDED YESTERDAY BY 17Z
MAXIMUM ALTITUDE..............(FT MSL)..  11500       12900
SOARING INDEX.................(FPM).....    525         627
FORECASTED K-INDEX.........VALID 18Z....     31          25
FORECASTED K-INDEX.........VALID 00Z....     28          29
FORECASTED LIFTED INDEX....VALID 18Z....      0           5
FORECASTED LIFTED INDEX....VALID 00Z....      2           3

AFTERNOON WINDS ALOFT FORECAST
MSL (FT) WIND/TEMP
9000  2921/-03
10000 3021/-05
12000 3320/-10
14000 3224/-13
16000 3229/-17
18000 3245/-21
24000 3391/-31
30000 3413/-43
34000 3405/-50
39000 3383/-52

SLIDE MOUNTAIN DATA:
 SLD HR 1220 M 23/21/2620/M  /SLIDE MTN UNOFFICIAL OBSERVATION

RENO TAF FORECAST:
KRNO 251212Z 2512/2612 30008KT P6SM -RA BKN020 OVC035
     FM251500 30013KT P6SM -SHRA SCT030 BKN060
     FM252000 31015G23KT P6SM VCSH SCT050 BKN100
     FM260300 33010KT P6SM SCT080 BKN120

CARSON CITY TAF FORECAST:
KCXP 251212Z 2512/2612 23008KT 4SM -RA BKN015
     FM251500 27009KT P6SM -SHRA SCT030 BKN060
     FM252100 28012G22KT P6SM VCSH SCT050 BKN100
     FM260300 30010KT P6SM SCT080 BKN120

OUTLOOK FOR THE RENO-CARSON CITY-MINDEN AREA:
.SUNDAY...SUNNY. HIGHS 59 TO 64. NORTH WINDS AROUND 10 MPH.

SUNRISE AND SUNSET
APRIL 25 2015.........SUNRISE   608 AM PDT   SUNSET   747 PM PDT
APRIL 26 2015.........SUNRISE   607 AM PDT   SUNSET   748 PM PDT



THIS PRODUCT IS ROUTINELY PREPARED BY 700 AM AND IS
DISTRIBUTED TO THE RENO FLIGHT SERVICE STATION AS WELL AS THE
NATIONAL WEATHER SERVICE WORLD WIDE WEB HOMEPAGE AT:
       HTTP://WWW.WEATHER.GOV/RENO





USA.gov is the U.S. government's official web portal to all federal, state and local government web resources and services.